Seward, NE

8:37 AM CST on March 06, 2015 (GMT -0600)
41611 | Change Station
CLOSE
Current Station
Personal Weather Station
Location: Seward, NE
Elevation: 1493 ft
Nearby Weather Stations

Elev 1493 ft 40.91 °N, 97.10 °W | Updated 9 minutes ago

Clear
Clear
29.8 °F
Feels Like 30 °F
N
2.7
Wind Variable Wind from SW

Today
High -- | Low -- °F
--% Chance of Precip.
Yesterday
High -- | Low -- °F
Precip. -- in
6:55 AM 6:25 PM
Full, 99% visible
Pressure 30.28 in
Visibility 10.0 miles
Clouds Clear
Windchill 30 °F
Dew Point 16 °F
Humidity 56%
Rainfall in
Snow Depth Not available.
UV 1 out of 12
Pollen 4.50 out of 12
Air Quality Not available.
Flu Activity Not available.
METAR KLNK 061354Z 23006KT 10SM CLR M03/M09 A3024 RMK AO2 SLP254 T10331094

More Conditions Fewer Conditions

Pressure 30.28 in
Visibility 10.0 miles
Clouds Clear
Windchill 30 °F
Dew Point 16 °F
Humidity 56%
Rainfall in
Snow Depth Not available.
UV 1 out of 12
Pollen 4.50 out of 12
Air Quality Not available.
Flu Activity Not available.
METAR KLNK 061354Z 23006KT 10SM CLR M03/M09 A3024 RMK AO2 SLP254 T10331094

More Conditions Fewer Conditions

10-Day Weather Forecast

Almanac

Astronomy

Mar. 06, 2015 Rise Set
Actual Time
Civil Twilight
Nautical Twilight
Astronomical Twilight
Moon
Length of Visible Light
Length of Day
Tomorrow will be .
, % of the Moon is Illuminated

Today's Extremes

State Highs State Lows

Community

WunderPhotos

Upload Photos

1,803,283 photos uploaded!

WunderBlogs® & News

Nearby

Air Quality

  Air Quality AQ Index Pollutant
Not available.

Snow Depth

Station Depth Elevation

Earthquake Activity

City Distance Mag. Time & Date
Minimum magnitude displayed is 2.5.

Coastal Water Temperatures

Place Temperature

Nearby Weather Stations